Saint Aubin/Jersey Island, United Kingdom
Current Conditions -  °F | °C
As of 7:20 PM on Thursday 29 Jan 2015 (Local Time) from EGJB Reporting Station
Broken Clouds Broken Clouds  
Wind Chill: 29°   Ceiling: 3000
Heat Index: 41°   Visibility: 6mi
Dew Point: 30°   Wind: 32mph
Humidity: 65%   Direction: 310°NW
Pressure: 29.06"   Gusts: 47mph
Location:  49.25°N, 2.75°W
Report Text: EGJB 291820Z 31028G41KT 9999 BKN030 05/M01 Q0984
Loading
Personal Weather Stations






























Interactive Weather Map New forecast layout! Learn more

10-Day Weather Forecast

Advertisements
Track Severe Weather on mobile